Portland, Oregon
Traffic Map
Current Weather Conditions
Portland, Oregon
Overcast
Overcast
14°
Feels Like: 14°
Wind Chill: 14° Ceiling: 2200
Heat Index: 14° Visibility: 10mi
Dew Point: 11° Wind: 6mph
Humidity: 78% Direction: 340° (NNW)
Pressure: 30.08in Gusts: 0mph
Raw Report DataKPDX 230453Z 34005KT 10SM OVC022 14/11 A3008 RMK AO2 SLP186 T01440106
Traffic Incident Summary
Active as of:
Severity:
Category:
InformationThere was an issue retrieving the traffic information for this location. Please try a different location or try again shortly.
Advertisements
Track Severe Weather on mobile